createdAt,value
2019-05-20T00:00:55.814Z,99597.14
2019-05-20T00:03:29.930Z,99591.98
2019-05-20T00:06:06.655Z,99590.45
2019-05-20T00:08:40.768Z,99587.02
2019-05-20T00:11:14.786Z,99582.82
2019-05-20T00:13:48.672Z,99580.03
2019-05-20T00:16:25.054Z,99578.08
2019-05-20T00:18:59.320Z,99580.06
2019-05-20T00:21:33.059Z,99579.13
2019-05-20T00:24:07.083Z,99582.15
2019-05-20T00:26:40.759Z,99585.18
2019-05-20T00:29:27.797Z,99584.53
2019-05-20T00:32:01.646Z,99586.25
2019-05-20T00:34:35.843Z,99591.41
2019-05-20T00:37:09.730Z,99588.48
2019-05-20T00:39:43.608Z,99587.59
2019-05-20T00:42:17.637Z,99591.81
2019-05-20T00:44:51.784Z,99589.38
2019-05-20T00:47:29.597Z,99591.56
2019-05-20T00:50:03.708Z,99594.80
2019-05-20T00:52:39.643Z,99591.08
2019-05-20T00:55:26.569Z,99596.92
2019-05-20T00:58:02.918Z,99595.66
2019-05-20T01:00:37.235Z,99599.00
2019-05-20T01:03:11.477Z,99590.98
2019-05-20T01:05:47.108Z,99593.38
2019-05-20T01:08:20.890Z,99588.64
2019-05-20T01:10:55.308Z,99588.16
2019-05-20T01:13:29.966Z,99593.69
2019-05-20T01:16:13.915Z,99601.56
2019-05-20T01:18:51.600Z,99601.79
2019-05-20T01:21:25.303Z,99593.82
2019-05-20T01:23:58.966Z,99596.84
2019-05-20T01:26:32.660Z,99600.08
2019-05-20T01:29:08.183Z,99601.88
2019-05-20T01:31:41.874Z,99602.76
2019-05-20T01:34:15.580Z,99599.70
2019-05-20T01:37:07.903Z,99600.52
2019-05-20T01:39:43.148Z,99597.37
2019-05-20T01:42:16.935Z,99594.23
2019-05-20T01:44:51.061Z,99598.86
2019-05-20T01:47:26.964Z,99591.11
2019-05-20T01:50:00.863Z,99581.87
2019-05-20T01:52:35.670Z,99583.09
2019-05-20T01:55:10.389Z,99592.59
2019-05-20T01:57:45.225Z,99592.00
2019-05-20T02:00:19.169Z,99584.30
2019-05-20T02:02:54.377Z,99576.70
2019-05-20T02:05:28.373Z,99577.41
2019-05-20T02:08:02.093Z,99583.77
2019-05-20T02:10:37.787Z,99579.17
2019-05-20T02:13:11.816Z,99579.17
2019-05-20T02:15:55.796Z,99577.45
2019-05-20T02:18:29.680Z,99578.85
2019-05-20T02:21:04.785Z,99586.59
2019-05-20T02:23:38.620Z,99590.14
2019-05-20T02:26:13.105Z,99585.67
2019-05-20T02:28:46.782Z,99582.86
2019-05-20T02:31:21.264Z,99590.20
2019-05-20T02:33:57.190Z,99589.87
2019-05-20T02:36:31.173Z,99587.49
2019-05-20T02:39:06.712Z,99585.98
2019-05-20T02:41:41.865Z,99588.69
2019-05-20T02:44:15.627Z,99590.74
2019-05-20T02:46:49.495Z,99585.03
2019-05-20T02:49:25.435Z,99585.42
2019-05-20T02:51:59.152Z,99582.25
2019-05-20T02:54:34.381Z,99580.23
2019-05-20T02:57:08.447Z,99580.94
2019-05-20T02:59:44.197Z,99571.23
2019-05-20T03:02:17.984Z,99572.66
2019-05-20T03:04:51.813Z,99569.93
2019-05-20T03:07:25.578Z,99569.47
2019-05-20T03:09:59.241Z,99570.84
2019-05-20T03:12:33.000Z,99567.06
2019-05-20T03:15:06.840Z,99579.36
2019-05-20T03:17:40.680Z,99573.58
2019-05-20T03:20:16.175Z,99582.09
2019-05-20T03:22:49.990Z,99582.67
2019-05-20T03:25:23.669Z,99583.16
2019-05-20T03:28:02.556Z,99591.05
2019-05-20T03:30:36.294Z,99595.81
2019-05-20T03:33:10.351Z,99595.72
2019-05-20T03:35:45.262Z,99589.64
2019-05-20T03:38:19.127Z,99588.82
2019-05-20T03:40:52.890Z,99592.14
2019-05-20T03:43:27.792Z,99584.69
2019-05-20T03:46:01.945Z,99581.61
2019-05-20T03:48:36.870Z,99584.32
2019-05-20T03:51:10.594Z,99584.22
2019-05-20T03:53:44.884Z,99582.92
2019-05-20T03:56:18.862Z,99590.81
2019-05-20T03:58:54.834Z,99585.08
2019-05-20T04:01:28.653Z,99582.37
2019-05-20T04:04:02.537Z,99580.81
2019-05-20T04:06:37.400Z,99584.56
2019-05-20T04:09:11.410Z,99580.16
2019-05-20T04:11:45.048Z,99586.52
2019-05-20T04:14:19.849Z,99583.91
2019-05-20T04:16:54.670Z,99581.44
2019-05-20T04:19:28.473Z,99594.40
2019-05-20T04:22:03.409Z,99591.20
2019-05-20T04:24:39.977Z,99595.80
2019-05-20T04:27:13.674Z,99592.20
2019-05-20T04:29:48.919Z,99590.04
2019-05-20T04:32:22.734Z,99586.11
2019-05-20T04:34:58.989Z,99586.53
2019-05-20T04:37:32.712Z,99584.79
2019-05-20T04:40:06.607Z,99591.36
2019-05-20T04:42:43.699Z,99590.27
2019-05-20T04:45:19.971Z,99593.14
2019-05-20T04:47:56.647Z,99588.77
2019-05-20T04:50:33.614Z,99592.48
2019-05-20T04:53:07.726Z,99592.62
2019-05-20T04:55:41.523Z,99595.17
2019-05-20T04:58:15.240Z,99595.95
2019-05-20T05:00:59.998Z,99600.97
2019-05-20T05:03:36.560Z,99601.42
2019-05-20T05:06:10.479Z,99601.79
2019-05-20T05:08:44.518Z,99594.96
2019-05-20T05:11:19.385Z,99592.53
2019-05-20T05:13:54.679Z,99597.16
2019-05-20T05:16:32.057Z,99596.96
2019-05-20T05:19:07.402Z,99605.95
2019-05-20T05:21:42.739Z,99601.88
2019-05-20T05:24:18.222Z,99601.95
2019-05-20T05:26:51.830Z,99607.02
2019-05-20T05:29:26.730Z,99607.94
2019-05-20T05:32:01.552Z,99611.69
2019-05-20T05:34:37.708Z,99608.34
2019-05-20T05:37:11.525Z,99600.38
2019-05-20T05:39:45.607Z,99601.89
2019-05-20T05:42:20.474Z,99601.73
2019-05-20T05:44:54.115Z,99607.28
2019-05-20T05:47:27.773Z,99606.56
2019-05-20T05:50:02.719Z,99608.79
2019-05-20T05:52:39.026Z,99612.61
2019-05-20T05:55:12.856Z,99623.48
2019-05-20T05:57:47.723Z,99624.88
2019-05-20T06:00:23.840Z,99635.53
2019-05-20T06:02:58.833Z,99638.52
2019-05-20T06:05:33.015Z,99635.11
2019-05-20T06:08:06.945Z,99632.65
2019-05-20T06:10:40.754Z,99635.42
2019-05-20T06:13:14.701Z,99633.27
2019-05-20T06:15:48.516Z,99632.08
2019-05-20T06:18:24.014Z,99624.69
2019-05-20T06:21:00.602Z,99633.16
2019-05-20T06:23:35.876Z,99640.52
2019-05-20T06:26:09.754Z,99634.73
2019-05-20T06:28:43.758Z,99643.24
2019-05-20T06:31:17.513Z,99649.10
2019-05-20T06:33:54.639Z,99659.01
2019-05-20T06:36:28.620Z,99657.36
2019-05-20T06:39:14.027Z,99654.01
2019-05-20T06:41:50.115Z,99655.64
2019-05-20T06:44:23.899Z,99658.33
2019-05-20T06:46:57.937Z,99660.99
2019-05-20T06:49:33.251Z,99665.28
2019-05-20T06:52:07.099Z,99667.31
2019-05-20T06:54:40.757Z,99665.20
2019-05-20T06:57:16.517Z,99663.58
2019-05-20T06:59:51.242Z,99651.23
2019-05-20T07:02:25.150Z,99660.46
2019-05-20T07:04:59.921Z,99656.95
2019-05-20T07:07:35.434Z,99660.13
2019-05-20T07:10:26.168Z,99659.22
2019-05-20T07:13:00.973Z,99661.56
2019-05-20T07:15:36.104Z,99657.31
2019-05-20T07:18:09.854Z,99657.49
2019-05-20T07:20:43.513Z,99667.12
2019-05-20T07:23:17.545Z,99671.38
2019-05-20T07:25:51.418Z,99662.12
2019-05-20T07:28:25.363Z,99658.98
2019-05-20T07:31:00.182Z,99656.77
2019-05-20T07:33:34.079Z,99655.18
2019-05-20T07:36:10.070Z,99655.13
2019-05-20T07:38:44.788Z,99651.48
2019-05-20T07:41:18.988Z,99651.56
2019-05-20T07:43:54.336Z,99648.17
2019-05-20T07:46:29.617Z,99647.12
2019-05-20T07:49:10.483Z,99645.62
2019-05-20T07:51:46.598Z,99642.64
2019-05-20T07:54:23.806Z,99646.91
2019-05-20T07:57:02.193Z,99649.08
2019-05-20T07:59:40.405Z,99655.45
2019-05-20T08:02:15.242Z,99655.68
2019-05-20T08:04:51.629Z,99658.73
2019-05-20T08:07:41.402Z,99659.39
2019-05-20T08:10:02.512Z,99660.95
2019-05-20T08:12:36.106Z,99664.19
2019-05-20T08:15:11.045Z,99655.66
2019-05-20T08:17:47.012Z,99652.05
2019-05-20T08:20:21.605Z,99650.01
2019-05-20T08:22:55.299Z,99655.27
2019-05-20T08:25:30.874Z,99652.86
2019-05-20T08:28:07.042Z,99650.47
2019-05-20T08:30:42.064Z,99657.20
2019-05-20T08:33:15.771Z,99651.74
2019-05-20T08:35:49.751Z,99648.16
2019-05-20T08:38:23.494Z,99654.23
2019-05-20T08:40:58.968Z,99651.03
2019-05-20T08:43:33.260Z,99658.91
2019-05-20T08:46:07.324Z,99653.06
2019-05-20T08:48:41.495Z,99657.20
2019-05-20T08:51:15.294Z,99649.86
2019-05-20T08:53:49.361Z,99647.21
2019-05-20T08:56:23.048Z,99651.13
2019-05-20T08:58:56.941Z,99651.03
2019-05-20T09:01:30.814Z,99654.15
2019-05-20T09:04:05.577Z,99659.34
2019-05-20T09:06:41.926Z,99656.90
2019-05-20T09:09:15.612Z,99653.92
2019-05-20T09:11:51.094Z,99650.84
2019-05-20T09:14:24.794Z,99651.22
2019-05-20T09:16:58.496Z,99643.11
2019-05-20T09:19:32.717Z,99640.47
2019-05-20T09:22:06.537Z,99645.64
2019-05-20T09:24:40.567Z,99637.48
2019-05-20T09:27:14.459Z,99639.34
2019-05-20T09:29:49.391Z,99639.18
2019-05-20T09:32:23.931Z,99642.42
2019-05-20T09:34:59.502Z,99639.11
2019-05-20T09:37:33.266Z,99635.34
2019-05-20T09:40:08.672Z,99639.88
2019-05-20T09:42:42.409Z,99643.08
2019-05-20T09:45:16.451Z,99649.13
2019-05-20T09:47:50.330Z,99651.37
2019-05-20T09:50:24.142Z,99636.97
2019-05-20T09:52:58.589Z,99633.63
2019-05-20T09:55:32.673Z,99631.92
2019-05-20T09:58:07.899Z,99639.01
2019-05-20T10:00:42.822Z,99639.19
2019-05-20T10:03:16.454Z,99646.25
2019-05-20T10:05:50.225Z,99643.79
2019-05-20T10:08:37.539Z,99640.64
2019-05-20T10:11:00.482Z,99640.23
2019-05-20T10:13:34.365Z,99629.23
2019-05-20T10:16:09.438Z,99623.08
2019-05-20T10:18:44.741Z,99633.03
2019-05-20T10:21:18.534Z,99628.50
2019-05-20T10:23:52.506Z,99639.73
2019-05-20T10:26:26.269Z,99629.12
2019-05-20T10:29:00.398Z,99629.52
2019-05-20T10:31:34.179Z,99627.72
2019-05-20T10:34:09.114Z,99625.80
2019-05-20T10:36:43.915Z,99626.00
2019-05-20T10:39:18.674Z,99626.63
2019-05-20T10:41:52.424Z,99633.84
2019-05-20T10:44:27.818Z,99626.89
2019-05-20T10:47:03.213Z,99631.09
2019-05-20T10:49:37.162Z,99629.20
2019-05-20T10:52:10.999Z,99628.52
2019-05-20T10:54:45.909Z,99626.48
2019-05-20T10:57:20.082Z,99629.97
2019-05-20T10:59:53.747Z,99628.45
2019-05-20T11:02:31.157Z,99633.56
2019-05-20T11:05:03.360Z,99638.16
2019-05-20T11:07:37.227Z,99634.58
2019-05-20T11:10:11.560Z,99633.96
2019-05-20T11:12:45.567Z,99634.67
2019-05-20T11:15:21.130Z,99628.91
2019-05-20T11:17:55.087Z,99635.34
2019-05-20T11:20:30.265Z,99636.92
2019-05-20T11:23:04.156Z,99634.78
2019-05-20T11:25:38.914Z,99636.80
2019-05-20T11:28:14.822Z,99634.95
2019-05-20T11:30:48.680Z,99634.06
2019-05-20T11:33:22.855Z,99627.72
2019-05-20T11:35:58.007Z,99630.91
2019-05-20T11:38:32.564Z,99627.40
2019-05-20T11:41:06.339Z,99626.19
2019-05-20T11:43:39.916Z,99616.17
2019-05-20T11:46:13.989Z,99623.91
2019-05-20T11:48:47.829Z,99608.52
2019-05-20T11:51:22.998Z,99622.47
2019-05-20T11:53:58.247Z,99617.84
2019-05-20T11:56:32.971Z,99619.52
2019-05-20T11:59:06.783Z,99615.39
2019-05-20T12:01:43.870Z,99622.81
2019-05-20T12:04:21.151Z,99616.42
2019-05-20T12:06:55.389Z,99614.78
2019-05-20T12:09:30.608Z,99608.28
2019-05-20T12:12:05.566Z,99606.45
2019-05-20T12:14:41.482Z,99601.90
2019-05-20T12:17:17.134Z,99599.06
2019-05-20T12:19:50.958Z,99599.30
2019-05-20T12:22:24.951Z,99592.34
2019-05-20T12:24:58.707Z,99584.79
2019-05-20T12:27:34.222Z,99583.81
2019-05-20T12:30:08.752Z,99585.81
2019-05-20T12:32:42.613Z,99583.42
2019-05-20T12:35:17.792Z,99570.25
2019-05-20T12:37:52.018Z,99568.47
2019-05-20T12:40:26.495Z,99559.87
2019-05-20T12:43:00.473Z,99558.97
2019-05-20T12:45:36.123Z,99558.53
2019-05-20T12:48:11.033Z,99550.36
2019-05-20T12:50:46.707Z,99546.07
2019-05-20T12:53:20.569Z,99535.71
2019-05-20T12:55:54.657Z,99540.04
2019-05-20T12:58:29.379Z,99534.66
2019-05-20T13:01:03.465Z,99536.27
2019-05-20T13:03:39.450Z,99531.39
2019-05-20T13:06:14.345Z,99529.64
2019-05-20T13:08:48.942Z,99524.23
2019-05-20T13:11:24.821Z,99526.31
2019-05-20T13:13:58.644Z,99530.00
2019-05-20T13:16:32.771Z,99527.44
2019-05-20T13:19:06.684Z,99515.68
2019-05-20T13:21:40.696Z,99515.71
2019-05-20T13:24:14.485Z,99515.58
2019-05-20T13:26:50.031Z,99507.23
2019-05-20T13:29:23.644Z,99508.20
2019-05-20T13:32:00.666Z,99511.08
2019-05-20T13:34:34.668Z,99504.51
2019-05-20T13:37:09.845Z,99510.41
2019-05-20T13:39:44.077Z,99500.77
2019-05-20T13:42:17.861Z,99491.09
2019-05-20T13:44:51.674Z,99492.20
2019-05-20T13:47:27.146Z,99480.74
2019-05-20T13:50:00.856Z,99479.38
2019-05-20T13:52:36.491Z,99473.05
2019-05-20T13:55:11.098Z,99464.33
2019-05-20T13:57:45.346Z,99462.92
2019-05-20T14:00:20.322Z,99452.50
2019-05-20T14:02:54.515Z,99454.77
2019-05-20T14:05:29.226Z,99457.47
2019-05-20T14:08:03.468Z,99451.02
2019-05-20T14:10:37.251Z,99452.31
2019-05-20T14:13:21.394Z,99449.92
2019-05-20T14:15:57.354Z,99450.55
2019-05-20T14:18:31.079Z,99454.64
2019-05-20T14:21:04.866Z,99441.17
2019-05-20T14:23:40.333Z,99438.69
2019-05-20T14:26:14.114Z,99440.90
2019-05-20T14:28:49.665Z,99432.41
2019-05-20T14:31:23.577Z,99422.55
2019-05-20T14:34:00.145Z,99431.99
2019-05-20T14:36:39.882Z,99430.93
2019-05-20T14:39:09.792Z,99423.55
2019-05-20T14:41:44.821Z,99416.09
2019-05-20T14:44:18.916Z,99416.78
2019-05-20T14:46:53.105Z,99411.27
2019-05-20T14:49:26.923Z,99410.55
2019-05-20T14:52:00.830Z,99405.41
2019-05-20T14:54:36.344Z,99417.09
2019-05-20T14:57:10.155Z,99413.63
2019-05-20T14:59:47.440Z,99414.70
2019-05-20T15:02:23.019Z,99412.20
2019-05-20T15:04:56.905Z,99402.98
2019-05-20T15:07:32.189Z,99402.69
2019-05-20T15:10:06.870Z,99396.35
2019-05-20T15:12:40.739Z,99389.25
2019-05-20T15:15:16.916Z,99386.36
2019-05-20T15:17:58.013Z,99389.88
2019-05-20T15:20:32.117Z,99384.64
2019-05-20T15:23:05.829Z,99387.20
2019-05-20T15:25:40.150Z,99384.04
2019-05-20T15:28:14.970Z,99388.21
2019-05-20T15:30:49.816Z,99397.38
2019-05-20T15:33:23.679Z,99396.27
2019-05-20T15:35:59.374Z,99393.30
2019-05-20T15:38:53.516Z,99407.41
2019-05-20T15:41:27.202Z,99399.11
2019-05-20T15:44:02.497Z,99387.94
2019-05-20T15:46:36.251Z,99388.75
2019-05-20T15:49:12.001Z,99405.44
2019-05-20T15:51:46.722Z,99412.27
2019-05-20T15:54:21.935Z,99412.45
2019-05-20T15:56:58.435Z,99423.65
2019-05-20T15:59:45.519Z,99425.23
2019-05-20T16:02:09.231Z,99411.59
2019-05-20T16:04:44.117Z,99415.05
2019-05-20T16:07:18.388Z,99423.40
2019-05-20T16:09:52.576Z,99429.94
2019-05-20T16:12:27.387Z,99426.80
2019-05-20T16:15:02.525Z,99419.78
2019-05-20T16:17:36.277Z,99427.80
2019-05-20T16:20:11.777Z,99428.80
2019-05-20T16:22:45.785Z,99434.41
2019-05-20T16:25:19.606Z,99445.13
2019-05-20T16:27:53.366Z,99442.03
2019-05-20T16:30:27.186Z,99442.68
2019-05-20T16:33:02.484Z,99447.84
2019-05-20T16:35:37.270Z,99443.56
2019-05-20T16:38:12.631Z,99442.43
2019-05-20T16:40:46.594Z,99450.72
2019-05-20T16:43:20.919Z,99456.14
2019-05-20T16:45:56.193Z,99463.46
2019-05-20T16:48:30.980Z,99462.35
2019-05-20T16:51:04.837Z,99462.38
2019-05-20T16:53:39.453Z,99456.50
2019-05-20T16:56:15.534Z,99463.53
2019-05-20T16:58:49.330Z,99470.11
2019-05-20T17:01:27.032Z,99467.75
2019-05-20T17:04:02.374Z,99475.25
2019-05-20T17:06:36.960Z,99480.17
2019-05-20T17:09:11.592Z,99484.88
2019-05-20T17:11:47.786Z,99489.31
2019-05-20T17:14:21.620Z,99492.04
2019-05-20T17:16:56.172Z,99489.55
2019-05-20T17:19:33.644Z,99498.55
2019-05-20T17:22:07.594Z,99495.34
2019-05-20T17:24:43.765Z,99501.06
2019-05-20T17:27:18.925Z,99504.50
2019-05-20T17:30:03.991Z,99501.48
2019-05-20T17:32:38.771Z,99501.99
2019-05-20T17:35:13.267Z,99499.65
2019-05-20T17:37:48.295Z,99501.15
2019-05-20T17:40:22.975Z,99488.46
2019-05-20T17:42:59.186Z,99480.50
2019-05-20T17:45:35.282Z,99484.34
2019-05-20T17:48:10.283Z,99484.74
2019-05-20T17:50:44.923Z,99480.32
2019-05-20T17:53:26.488Z,99481.71
2019-05-20T17:56:03.269Z,99480.97
2019-05-20T17:58:39.486Z,99485.00
2019-05-20T18:01:16.208Z,99485.03
2019-05-20T18:03:51.841Z,99499.02
2019-05-20T18:06:27.015Z,99500.02
2019-05-20T18:09:04.895Z,99497.58
2019-05-20T18:11:39.199Z,99498.89
2019-05-20T18:14:13.840Z,99501.38
2019-05-20T18:16:48.990Z,99495.30
2019-05-20T18:23:27.659Z,99497.59
2019-05-20T18:26:03.629Z,99505.52
2019-05-20T18:28:38.712Z,99512.44
2019-05-20T18:31:31.252Z,99513.12
2019-05-20T18:33:53.877Z,99513.13
2019-05-20T18:36:29.092Z,99511.14
2019-05-20T18:39:08.441Z,99508.20
2019-05-20T18:41:46.163Z,99507.53
2019-05-20T18:44:22.057Z,99509.52
2019-05-20T18:47:02.409Z,99507.05
2019-05-20T18:49:42.590Z,99511.48
2019-05-20T18:52:16.785Z,99512.41
2019-05-20T18:54:51.227Z,99512.11
2019-05-20T18:57:27.555Z,99501.62
2019-05-20T19:00:04.467Z,99505.67
2019-05-20T19:02:40.746Z,99507.48
2019-05-20T19:05:18.095Z,99507.16
2019-05-20T19:07:52.268Z,99501.23
2019-05-20T19:10:27.382Z,99500.73
2019-05-20T19:13:06.933Z,99507.14
2019-05-20T19:15:41.825Z,99506.49
2019-05-20T19:18:16.791Z,99497.61
2019-05-20T19:20:51.603Z,99499.92
2019-05-20T19:23:27.063Z,99501.70
2019-05-20T19:26:02.792Z,99504.48
2019-05-20T19:28:38.093Z,99502.19
2019-05-20T19:31:12.361Z,99496.92
2019-05-20T19:33:48.385Z,99499.86
2019-05-20T19:36:25.811Z,99493.75
2019-05-20T19:39:01.566Z,99499.69
2019-05-20T19:41:44.351Z,99497.39
2019-05-20T19:44:20.168Z,99506.56
2019-05-20T19:46:55.788Z,99518.55
2019-05-20T19:49:34.526Z,99521.62
2019-05-20T19:52:08.542Z,99534.20
2019-05-20T19:54:43.548Z,99532.48
2019-05-20T19:57:18.173Z,99513.55
2019-05-20T19:59:53.122Z,99515.43
2019-05-20T20:02:26.848Z,99508.89
2019-05-20T20:05:01.855Z,99511.02
2019-05-20T20:07:36.009Z,99508.23
2019-05-20T20:10:11.940Z,99510.55
2019-05-20T20:12:45.809Z,99506.21
2019-05-20T20:15:20.562Z,99513.24
2019-05-20T20:17:54.434Z,99508.67
2019-05-20T20:20:32.246Z,99503.58
2019-05-20T20:23:11.956Z,99505.63
2019-05-20T20:25:46.329Z,99502.50
2019-05-20T20:28:21.578Z,99498.19
2019-05-20T20:30:55.340Z,99498.34
2019-05-20T20:33:29.489Z,99499.53
2019-05-20T20:36:03.407Z,99502.09
2019-05-20T20:38:38.259Z,99498.96
2019-05-20T20:41:16.367Z,99505.67
2019-05-20T20:43:50.614Z,99504.39
2019-05-20T20:46:26.231Z,99503.58
2019-05-20T20:49:01.182Z,99506.11
2019-05-20T20:51:35.071Z,99505.80
2019-05-20T20:54:10.675Z,99501.05
2019-05-20T20:56:44.742Z,99502.24
2019-05-20T20:59:18.900Z,99499.05
2019-05-20T21:01:56.723Z,99508.27
2019-05-20T21:04:28.518Z,99508.29
2019-05-20T21:07:02.356Z,99513.14
2019-05-20T21:09:36.154Z,99506.81
2019-05-20T21:12:10.409Z,99508.29
2019-05-20T21:14:45.334Z,99500.16
2019-05-20T21:17:20.524Z,99493.32
2019-05-20T21:19:54.334Z,99492.09
2019-05-20T21:22:28.014Z,99490.91
2019-05-20T21:25:01.661Z,99483.83
2019-05-20T21:27:35.650Z,99482.87
2019-05-20T21:30:10.975Z,99478.59
2019-05-20T21:32:44.782Z,99473.27
2019-05-20T21:35:19.542Z,99476.41
2019-05-20T21:38:07.594Z,99477.27
2019-05-20T21:40:42.726Z,99476.27
2019-05-20T21:43:16.724Z,99465.67
2019-05-20T21:45:53.390Z,99467.48
2019-05-20T21:48:27.061Z,99469.07
2019-05-20T21:51:04.289Z,99470.84
2019-05-20T21:53:40.164Z,99480.98
2019-05-20T21:56:16.302Z,99480.88
2019-05-20T21:58:52.365Z,99479.06
2019-05-20T22:01:29.338Z,99479.33
2019-05-20T22:04:04.724Z,99486.19
2019-05-20T22:06:38.740Z,99483.91
2019-05-20T22:09:16.775Z,99491.28
2019-05-20T22:11:51.531Z,99485.66
2019-05-20T22:14:26.365Z,99488.47
2019-05-20T22:17:02.221Z,99495.17
2019-05-20T22:19:36.036Z,99490.75
2019-05-20T22:22:32.520Z,99496.03
2019-05-20T22:25:06.710Z,99495.02
2019-05-20T22:27:42.391Z,99496.64
2019-05-20T22:30:16.769Z,99499.26
2019-05-20T22:32:50.567Z,99491.35
2019-05-20T22:35:26.123Z,99489.31
2019-05-20T22:38:01.029Z,99494.55
2019-05-20T22:40:35.202Z,99485.17
2019-05-20T22:43:11.510Z,99487.95
2019-05-20T22:45:46.343Z,99482.97
2019-05-20T22:48:22.030Z,99476.83
2019-05-20T22:50:55.755Z,99473.31
2019-05-20T22:53:29.918Z,99475.73
2019-05-20T22:56:03.886Z,99473.81
2019-05-20T22:58:56.972Z,99481.67
2019-05-20T23:01:31.599Z,99479.82
2019-05-20T23:04:06.848Z,99476.79
2019-05-20T23:06:40.547Z,99471.67
2019-05-20T23:09:15.114Z,99473.38
2019-05-20T23:11:48.770Z,99469.70
2019-05-20T23:14:23.598Z,99467.63
2019-05-20T23:16:57.518Z,99462.80
2019-05-20T23:19:32.453Z,99466.31
2019-05-20T23:22:06.876Z,99462.38
2019-05-20T23:24:40.827Z,99468.19
2019-05-20T23:27:16.649Z,99463.49
2019-05-20T23:29:50.935Z,99467.57
2019-05-20T23:32:26.000Z,99469.84
2019-05-20T23:35:00.016Z,99463.71
2019-05-20T23:37:34.472Z,99468.18
2019-05-20T23:40:09.876Z,99469.34
2019-05-20T23:42:45.300Z,99473.33
2019-05-20T23:45:19.334Z,99475.33
2019-05-20T23:47:53.149Z,99474.34
2019-05-20T23:50:27.482Z,99467.47
2019-05-20T23:53:02.404Z,99467.89
2019-05-20T23:55:36.409Z,99471.86
2019-05-20T23:58:10.175Z,99478.14
